Airfield :
LOGIN :

Register | Disclaimer

   EN    FR    IT 

 










Legend :    VFR   Marginal VFR   IFR   Intensive IFR   Very Intensive IFR
Visi :
Ceiling :
>= 8 km
>= 3000ft
5 to 8 km
1000 to 3000 ft
1500m to 5 km
500 to 1000 ft
800 to 1500m
200 to 500 ft
< 800m
< 200 ft
Symbols :   Thunderstorms  Fog  Heavy snow  Heavy precipitations  Wind > 20 kt
SIGMETs :     Misc.  Thunderstorms  Icing  Turbulence  Mountain Waves  Volcanic Ashes







- Airport Elevation : 1302 ft
- IATA code : GNB
- Download approach charts


LFLS - Grenoble / St. Geoirs

CURRENT METAR :
  • 220530Z AUTO 09010KT 9000 -RA FEW004/// OVC034/// ///TCU 06/06 Q1018 TEMPO 4000 RADZ SCT012 OVC020

EXPIRED METARs :
  • 220500Z AUTO 07009KT 5000 RA BR BKN017/// BKN032/// OVC039/// ///TCU 06/06 Q1018 TEMPO SCT012 OVC020
  • 220430Z AUTO 10010KT 4500 -RA BR SCT022/// BKN028/// OVC035/// ///TCU 07/06 Q1018 TEMPO RADZ SCT012 OVC020
  • 220400Z AUTO 08006KT 4800 -RA BR FEW024 BKN033 OVC040 07/07 Q1018 TEMPO RADZ
  • 220330Z AUTO 07005KT 8000 -DZ SCT031/// BKN039/// BKN047/// ///TCU 07/06 Q1018 TEMPO 4000 RADZ SCT012 OVC020
  • 220300Z AUTO 10005KT 8000 FEW033 SCT066 OVC078 06/06 Q1018 TEMPO 4000 RADZ

TAF TAF LFLS
Valid from the 22 at 03:00 until the 23 at 03:00 UTC


220200Z 2203/2303 09005KT 7000 BKN035
TEMPO 2203/2222 -RADZ
PROB40
TEMPO 2203/2209 4000 RADZ SCT012 OVC020
BECMG 2218/2221 34008KT
ATIS : +33 4 76 65 55 89
No reported NOTAMs for that airfield.
3 SIGMETs reported for the Marseille FIR (LFMM) :
 
Severe turbulence
LFMM SIGMET 3 VALID 220600/220700 LFPW
LFMM MARSEILLE FIR/UIR SEV TURB FCST WI N4545 E00700 - N4400 E00700 - N4400 E00715 - N4215 E00630 - N4315 E00500 - N4530 E00600 - N4545 E00700 SFC/FL120 STNR NC=
Severe turbulence
LFMM SIGMET 2 VALID 220400/220700 LFPW
LFMM MARSEILLE FIR/UIR SEV TURB FCST WI N4215 E00300 - N4215 E00230 - N4545 E00300 - N4600 E00400 - N4500 E00430 - N4215 E00300 SFC/FL080 STNR NC=
Severe turbulence
LFMM SIGMET 1 VALID 220300/220700 LFPW
LFMM MARSEILLE FIR/UIR SEV TURB FCST WI N4615 E00700 - N4400 E00700 - N4400 E00715 - N4315 E00645 - N4145 E00715 - N4145 E00600 - N4430 E00515 - N4615 E00700 SFC/FL120 STNR NC=



MET'MAP, your aeronautical weather chart ! - Copyright ORBIFLY December 2007 - Disclaimer

ORBIFLY MET'MAP TEAM :

Programming & Development : Alexandra Zaïnal
Concept & Development : Baudouin d'Aumeries
Co-Development & Prog : Marc-Olivier Méhu
Technical & hardware support : Manuel Goepfert

Contact : metmap@orbifly.com




SOURCES & CREDITS :

   NOAA